createdAt,value
2022-11-30T00:02:04.743Z,21.83
2022-11-30T00:04:32.854Z,23.42
2022-11-30T00:07:03.380Z,21.35
2022-11-30T00:09:32.115Z,19.90
2022-11-30T00:12:00.214Z,21.05
2022-11-30T00:14:28.416Z,20.58
2022-11-30T00:16:56.714Z,20.25
2022-11-30T00:19:24.749Z,20.35
2022-11-30T00:21:52.751Z,19.23
2022-11-30T00:24:22.285Z,20.42
2022-11-30T00:26:53.401Z,18.92
2022-11-30T00:29:21.444Z,21.40
2022-11-30T00:31:49.448Z,22.35
2022-11-30T00:34:17.505Z,20.02
2022-11-30T00:36:45.648Z,22.05
2022-11-30T00:39:13.661Z,21.65
2022-11-30T00:41:45.724Z,25.83
2022-11-30T00:44:13.751Z,21.75
2022-11-30T00:46:41.725Z,21.15
2022-11-30T00:49:09.711Z,22.40
2022-11-30T00:51:39.024Z,22.77
2022-11-30T00:54:07.303Z,21.75
2022-11-30T00:56:35.318Z,21.73
2022-11-30T00:59:04.977Z,26.90
2022-11-30T01:01:33.360Z,26.13
2022-11-30T01:04:01.282Z,25.40
2022-11-30T01:06:29.404Z,24.20
2022-11-30T01:08:57.703Z,26.25
2022-11-30T01:11:27.896Z,24.70
2022-11-30T01:16:29.582Z,28.13
2022-11-30T01:18:57.956Z,28.60
2022-11-30T01:21:28.912Z,26.25
2022-11-30T01:23:57.050Z,24.67
2022-11-30T01:26:25.809Z,23.48
2022-11-30T01:28:54.858Z,22.80
2022-11-30T01:31:25.375Z,23.13
2022-11-30T01:33:55.394Z,23.25
2022-11-30T01:36:25.526Z,21.30
2022-11-30T01:41:24.661Z,24.25
2022-11-30T01:43:54.258Z,28.25
2022-11-30T01:46:37.027Z,37.83
2022-11-30T01:49:15.494Z,34.45
2022-11-30T01:51:47.781Z,37.30
2022-11-30T01:54:19.717Z,31.15
2022-11-30T01:56:52.007Z,26.00
2022-11-30T01:59:25.594Z,30.95
2022-11-30T02:01:56.200Z,32.58
2022-11-30T02:04:28.719Z,26.70
2022-11-30T02:06:58.286Z,25.17
2022-11-30T02:09:28.160Z,28.70
2022-11-30T02:11:58.188Z,23.23
2022-11-30T02:14:33.765Z,22.25
2022-11-30T02:17:15.526Z,26.67
2022-11-30T02:20:17.372Z,25.10
2022-11-30T02:23:04.558Z,26.90
2022-11-30T02:25:44.493Z,25.20
2022-11-30T02:28:24.674Z,24.25
2022-11-30T02:33:28.893Z,24.17
2022-11-30T02:35:58.242Z,25.45
2022-11-30T02:38:28.593Z,24.33
2022-11-30T02:40:56.930Z,24.98
2022-11-30T02:43:28.599Z,24.45
2022-11-30T02:46:04.149Z,23.50
2022-11-30T02:48:40.213Z,21.85
2022-11-30T02:51:11.853Z,22.63
2022-11-30T02:53:40.308Z,20.42
2022-11-30T02:56:08.833Z,22.90
2022-11-30T02:58:37.106Z,20.38
2022-11-30T03:01:09.492Z,23.02
2022-11-30T03:03:37.984Z,23.17
2022-11-30T03:06:06.249Z,23.85
2022-11-30T03:08:34.301Z,23.45
2022-11-30T03:11:03.081Z,23.83
2022-11-30T03:13:31.868Z,21.38
2022-11-30T03:16:00.055Z,21.58
2022-11-30T03:18:29.528Z,19.92
2022-11-30T03:20:58.512Z,22.35
2022-11-30T03:23:26.797Z,22.85
2022-11-30T03:25:58.858Z,19.85
2022-11-30T03:28:27.000Z,23.83
2022-11-30T03:30:55.699Z,22.98
2022-11-30T03:33:23.686Z,21.00
2022-11-30T03:36:02.347Z,19.50
2022-11-30T03:38:30.497Z,19.70
2022-11-30T03:41:02.709Z,20.42
2022-11-30T03:43:30.950Z,19.27
2022-11-30T03:45:59.021Z,20.02
2022-11-30T03:48:27.548Z,18.67
2022-11-30T03:50:56.000Z,18.38
2022-11-30T03:53:27.098Z,17.52
2022-11-30T03:55:56.658Z,18.27
2022-11-30T03:58:25.739Z,19.98
2022-11-30T04:01:00.843Z,19.45
2022-11-30T04:03:29.553Z,20.90
2022-11-30T04:05:57.658Z,18.33
2022-11-30T04:08:27.628Z,18.90
2022-11-30T04:10:58.160Z,18.60
2022-11-30T04:13:28.273Z,16.65
2022-11-30T04:15:57.545Z,15.50
2022-11-30T04:18:27.493Z,17.20
2022-11-30T04:20:57.305Z,16.92
2022-11-30T04:23:30.397Z,15.15
2022-11-30T04:25:59.118Z,15.50
2022-11-30T04:28:27.028Z,14.38
2022-11-30T04:30:55.703Z,14.18
2022-11-30T04:33:23.928Z,15.25
2022-11-30T04:35:55.256Z,13.68
2022-11-30T04:38:23.962Z,13.02
2022-11-30T04:40:53.800Z,13.00
2022-11-30T04:43:22.522Z,14.57
2022-11-30T04:45:50.941Z,13.63
2022-11-30T04:48:20.005Z,13.05
2022-11-30T04:50:48.075Z,12.63
2022-11-30T04:53:18.521Z,12.63
2022-11-30T04:55:46.583Z,14.77
2022-11-30T04:58:16.053Z,12.52
2022-11-30T05:00:44.065Z,12.80
2022-11-30T05:03:12.196Z,11.10
2022-11-30T05:05:40.363Z,10.85
2022-11-30T05:08:08.341Z,10.82
2022-11-30T05:10:36.450Z,10.63
2022-11-30T05:13:04.407Z,11.27
2022-11-30T05:15:34.283Z,15.07
2022-11-30T05:18:03.321Z,21.13
2022-11-30T05:20:31.349Z,21.88
2022-11-30T05:22:59.499Z,21.02
2022-11-30T05:25:27.565Z,20.90
2022-11-30T05:27:55.523Z,21.35
2022-11-30T05:30:23.623Z,24.33
2022-11-30T05:32:54.258Z,21.30
2022-11-30T05:35:22.286Z,21.42
2022-11-30T05:37:50.504Z,22.77
2022-11-30T05:40:18.863Z,23.55
2022-11-30T05:42:46.962Z,21.48
2022-11-30T05:45:15.288Z,21.00
2022-11-30T05:47:43.408Z,20.63
2022-11-30T05:50:12.984Z,24.00
2022-11-30T05:52:40.961Z,23.23
2022-11-30T05:55:09.440Z,21.67
2022-11-30T05:57:37.997Z,21.77
2022-11-30T06:00:07.303Z,19.77
2022-11-30T06:02:42.404Z,20.95
2022-11-30T06:05:12.212Z,21.38
2022-11-30T06:07:40.395Z,23.95
2022-11-30T06:10:09.626Z,21.48
2022-11-30T06:12:37.638Z,20.55
2022-11-30T06:15:06.499Z,21.92
2022-11-30T06:17:37.617Z,21.58
2022-11-30T06:20:06.259Z,21.85
2022-11-30T06:22:35.763Z,20.50
2022-11-30T06:25:04.350Z,20.55
2022-11-30T06:27:32.518Z,21.15
2022-11-30T06:30:01.613Z,20.17
2022-11-30T06:32:29.707Z,22.35
2022-11-30T06:34:57.872Z,24.83
2022-11-30T06:37:25.738Z,25.30
2022-11-30T06:40:10.500Z,22.35
2022-11-30T06:42:39.236Z,19.65
2022-11-30T06:45:09.043Z,24.35
2022-11-30T06:47:37.100Z,24.20
2022-11-30T06:50:06.159Z,24.63
2022-11-30T06:52:34.292Z,25.35
2022-11-30T06:55:04.260Z,22.33
2022-11-30T06:57:32.424Z,22.30
2022-11-30T07:00:00.571Z,21.75
2022-11-30T07:02:28.753Z,25.48
2022-11-30T07:04:56.779Z,25.13
2022-11-30T07:07:24.853Z,23.33
2022-11-30T07:09:53.293Z,23.77
2022-11-30T07:12:22.903Z,22.77
2022-11-30T07:14:52.790Z,23.67
2022-11-30T07:17:21.074Z,23.15
2022-11-30T07:19:49.642Z,24.70
2022-11-30T07:22:17.589Z,26.50
2022-11-30T07:25:02.959Z,23.25
2022-11-30T07:27:32.389Z,23.48
2022-11-30T07:30:00.358Z,24.27
2022-11-30T07:32:28.366Z,24.55
2022-11-30T07:34:56.480Z,28.30
2022-11-30T07:37:24.413Z,24.05
2022-11-30T07:39:52.351Z,26.27
2022-11-30T07:42:20.393Z,25.25
2022-11-30T07:44:56.939Z,25.88
2022-11-30T07:47:26.703Z,25.92
2022-11-30T07:49:54.705Z,23.17
2022-11-30T07:52:22.752Z,22.58
2022-11-30T07:54:51.066Z,23.90
2022-11-30T07:57:19.202Z,23.30
2022-11-30T07:59:47.799Z,22.27
2022-11-30T08:02:17.344Z,24.00
2022-11-30T08:04:48.684Z,23.73
2022-11-30T08:07:17.429Z,26.42
2022-11-30T08:09:46.176Z,27.98
2022-11-30T08:12:14.220Z,24.73
2022-11-30T08:15:17.529Z,26.60
2022-11-30T08:17:31.741Z,23.08
2022-11-30T08:20:00.117Z,28.57
2022-11-30T08:22:28.216Z,27.10
2022-11-30T08:24:56.299Z,23.25
2022-11-30T08:27:24.347Z,24.85
2022-11-30T08:29:52.816Z,25.65
2022-11-30T08:32:21.147Z,26.13
2022-11-30T08:34:50.760Z,21.30
2022-11-30T08:37:18.749Z,22.08
2022-11-30T08:39:46.743Z,21.50
2022-11-30T08:42:14.740Z,21.70
2022-11-30T08:44:43.005Z,20.33
2022-11-30T08:47:10.983Z,22.77
2022-11-30T08:49:39.117Z,21.45
2022-11-30T08:52:17.664Z,23.08
2022-11-30T08:54:47.807Z,21.92
2022-11-30T08:57:17.416Z,20.80
2022-11-30T08:59:45.577Z,23.10
2022-11-30T09:02:17.476Z,20.63
2022-11-30T09:04:47.521Z,20.10
2022-11-30T09:07:17.760Z,21.10
2022-11-30T09:09:45.968Z,21.17
2022-11-30T09:12:14.063Z,19.77
2022-11-30T09:14:42.705Z,24.38
2022-11-30T09:17:10.783Z,22.63
2022-11-30T09:19:38.734Z,20.80
2022-11-30T09:22:06.836Z,21.52
2022-11-30T09:24:38.200Z,19.67
2022-11-30T09:27:06.247Z,18.85
2022-11-30T09:29:34.218Z,20.00
2022-11-30T09:32:02.361Z,18.33
2022-11-30T09:34:30.410Z,18.52
2022-11-30T09:36:58.597Z,16.52
2022-11-30T09:39:26.752Z,16.05
2022-11-30T09:42:17.263Z,16.88
2022-11-30T09:44:53.035Z,18.02
2022-11-30T09:47:39.157Z,20.20
2022-11-30T09:50:15.610Z,58.22
2022-11-30T09:52:48.403Z,94.28
2022-11-30T09:55:24.134Z,29.48
2022-11-30T09:57:59.693Z,19.48
2022-11-30T10:00:29.967Z,20.83
2022-11-30T10:03:03.226Z,19.35
2022-11-30T10:05:46.902Z,20.73
2022-11-30T10:08:44.837Z,17.33
2022-11-30T10:11:32.908Z,19.63
2022-11-30T10:14:19.222Z,20.77
2022-11-30T10:16:59.136Z,16.00
2022-11-30T10:19:41.673Z,16.20
2022-11-30T10:22:20.669Z,17.88
2022-11-30T10:25:03.881Z,17.27
2022-11-30T10:27:49.605Z,18.92
2022-11-30T10:30:22.463Z,16.45
2022-11-30T10:32:54.062Z,16.75
2022-11-30T10:35:31.409Z,17.45
2022-11-30T10:38:04.500Z,16.50
2022-11-30T10:40:39.706Z,15.48
2022-11-30T10:43:18.112Z,15.88
2022-11-30T10:45:49.358Z,15.02
2022-11-30T10:48:21.932Z,17.27
2022-11-30T10:50:50.084Z,17.15
2022-11-30T10:53:18.227Z,17.00
2022-11-30T10:55:55.050Z,16.35
2022-11-30T10:58:28.706Z,16.83
2022-11-30T11:01:03.715Z,18.60
2022-11-30T11:03:32.595Z,15.60
2022-11-30T11:06:07.735Z,15.38
2022-11-30T11:08:36.456Z,16.02
2022-11-30T11:11:06.190Z,16.58
2022-11-30T11:13:39.907Z,19.27
2022-11-30T11:16:11.176Z,20.38
2022-11-30T11:18:53.553Z,35.03
2022-11-30T11:21:23.855Z,18.15
2022-11-30T11:26:24.255Z,18.85
2022-11-30T11:28:54.137Z,19.55
2022-11-30T11:31:44.150Z,21.23
2022-11-30T11:34:25.621Z,21.25
2022-11-30T11:37:06.304Z,23.58
2022-11-30T11:39:34.639Z,20.00
2022-11-30T11:42:02.792Z,21.75
2022-11-30T11:44:31.818Z,23.05
2022-11-30T11:47:03.591Z,19.02
2022-11-30T11:49:34.123Z,20.05
2022-11-30T11:52:04.540Z,19.92
2022-11-30T11:54:36.779Z,21.35
2022-11-30T11:57:08.498Z,19.35
2022-11-30T11:59:41.975Z,18.48
2022-11-30T12:02:27.266Z,18.27
2022-11-30T12:04:59.412Z,19.85
2022-11-30T12:07:33.365Z,19.35
2022-11-30T12:10:50.183Z,19.92
2022-11-30T12:13:13.105Z,22.33
2022-11-30T12:15:52.826Z,23.92
2022-11-30T12:18:26.061Z,20.65
2022-11-30T12:20:59.355Z,19.77
2022-11-30T12:23:45.947Z,21.20
2022-11-30T12:26:22.751Z,20.65
2022-11-30T12:29:04.246Z,22.27
2022-11-30T12:31:42.596Z,21.27
2022-11-30T12:34:20.089Z,22.08
2022-11-30T12:36:57.926Z,29.73
2022-11-30T12:39:33.552Z,23.02
2022-11-30T12:42:08.103Z,26.83
2022-11-30T12:44:47.020Z,22.08
2022-11-30T12:47:29.832Z,24.30
2022-11-30T12:50:10.116Z,20.08
2022-11-30T12:55:26.430Z,18.48
2022-11-30T12:58:01.014Z,18.25
2022-11-30T13:00:40.801Z,18.90
2022-11-30T13:03:36.543Z,19.98
2022-11-30T13:06:13.154Z,19.20
2022-11-30T13:08:49.535Z,19.88
2022-11-30T13:11:22.595Z,20.83
2022-11-30T13:13:55.621Z,18.33
2022-11-30T13:16:25.654Z,17.85
2022-11-30T13:19:01.201Z,23.67
2022-11-30T13:21:37.661Z,20.30
2022-11-30T13:24:12.934Z,17.05
2022-11-30T13:26:48.460Z,19.60
2022-11-30T13:29:32.845Z,20.85
2022-11-30T13:32:22.256Z,18.92
2022-11-30T13:35:35.313Z,20.40
2022-11-30T13:38:35.161Z,19.20
2022-11-30T13:41:00.258Z,19.90
2022-11-30T13:43:32.410Z,22.60
2022-11-30T13:46:16.089Z,20.58
2022-11-30T13:48:45.669Z,21.58
2022-11-30T13:51:35.809Z,24.85
2022-11-30T13:54:37.135Z,24.83
2022-11-30T13:57:18.111Z,20.10
2022-11-30T13:59:49.354Z,22.13
2022-11-30T14:02:53.747Z,25.50
2022-11-30T14:05:35.888Z,21.85
2022-11-30T14:08:32.372Z,22.35
2022-11-30T14:11:38.108Z,22.00
2022-11-30T14:14:45.648Z,25.33
2022-11-30T14:17:27.601Z,23.75
2022-11-30T14:20:00.328Z,23.33
2022-11-30T14:22:30.568Z,25.00
2022-11-30T14:27:30.032Z,22.23
2022-11-30T14:30:04.493Z,25.38
2022-11-30T14:32:39.081Z,23.45
2022-11-30T14:35:11.587Z,25.02
2022-11-30T14:37:46.972Z,28.58
2022-11-30T14:40:19.247Z,26.70
2022-11-30T14:42:49.935Z,27.67
2022-11-30T14:45:25.086Z,25.42
2022-11-30T14:47:56.133Z,33.97
2022-11-30T14:50:26.625Z,25.50
2022-11-30T14:53:07.363Z,28.75
2022-11-30T14:55:44.964Z,29.88
2022-11-30T14:58:23.492Z,30.35
2022-11-30T15:00:53.736Z,28.50
2022-11-30T15:05:56.560Z,37.95
2022-11-30T15:08:34.359Z,40.45
2022-11-30T15:11:07.143Z,41.75
2022-11-30T15:13:40.511Z,44.47
2022-11-30T15:16:19.647Z,36.22
2022-11-30T15:18:47.811Z,36.65
2022-11-30T15:21:20.157Z,39.33
2022-11-30T15:23:51.473Z,36.17
2022-11-30T15:26:25.710Z,46.72
2022-11-30T15:28:59.729Z,48.20
2022-11-30T15:31:36.773Z,57.08
2022-11-30T15:34:05.809Z,59.03
2022-11-30T15:36:35.950Z,59.05
2022-11-30T15:39:07.557Z,66.25
2022-11-30T15:41:37.105Z,70.78
2022-11-30T15:44:05.218Z,57.58
2022-11-30T15:46:42.759Z,56.20
2022-11-30T15:49:19.093Z,59.20
2022-11-30T15:51:54.479Z,72.07
2022-11-30T15:54:43.700Z,62.60
2022-11-30T15:57:12.596Z,69.18
2022-11-30T15:59:41.497Z,64.47
2022-11-30T16:02:26.932Z,63.90
2022-11-30T16:05:24.437Z,57.03
2022-11-30T16:07:55.232Z,55.72
2022-11-30T16:10:25.669Z,56.80
2022-11-30T16:15:24.076Z,56.45
2022-11-30T16:17:55.071Z,54.90
2022-11-30T16:20:24.136Z,49.25
2022-11-30T16:22:52.279Z,53.72
2022-11-30T16:25:22.720Z,48.88
2022-11-30T16:27:51.473Z,49.13
2022-11-30T16:30:22.509Z,47.97
2022-11-30T16:32:51.067Z,50.67
2022-11-30T16:35:24.415Z,48.90
2022-11-30T16:37:52.897Z,51.53
2022-11-30T16:40:21.581Z,49.67
2022-11-30T16:42:51.541Z,55.85
2022-11-30T16:45:22.210Z,58.20
2022-11-30T16:47:50.984Z,58.30
2022-11-30T16:50:20.451Z,61.83
2022-11-30T16:52:49.957Z,56.60
2022-11-30T16:55:20.844Z,82.32
2022-11-30T16:57:50.119Z,63.30
2022-11-30T17:00:20.824Z,79.67
2022-11-30T17:03:00.866Z,54.85
2022-11-30T17:05:30.476Z,90.47
2022-11-30T17:08:00.200Z,82.97
2022-11-30T17:10:28.534Z,71.60
2022-11-30T17:12:56.810Z,62.47
2022-11-30T17:15:25.535Z,59.97
2022-11-30T17:17:57.600Z,57.83
2022-11-30T17:20:26.002Z,57.90
2022-11-30T17:22:54.475Z,61.97
2022-11-30T17:25:25.165Z,56.28
2022-11-30T17:27:53.610Z,66.97
2022-11-30T17:30:23.909Z,56.80
2022-11-30T17:32:52.224Z,58.65
2022-11-30T17:35:20.662Z,56.38
2022-11-30T17:37:48.700Z,57.33
2022-11-30T17:40:17.038Z,56.45
2022-11-30T17:42:46.409Z,57.28
2022-11-30T17:45:14.417Z,58.57
2022-11-30T17:47:42.374Z,55.08
2022-11-30T17:50:11.516Z,54.35
2022-11-30T17:52:39.437Z,53.63
2022-11-30T17:55:08.490Z,52.75
2022-11-30T17:57:38.241Z,48.80
2022-11-30T18:00:09.653Z,40.40
2022-11-30T18:02:37.685Z,46.85
2022-11-30T18:05:06.441Z,41.83
2022-11-30T18:07:34.536Z,45.90
2022-11-30T18:10:02.701Z,44.90
2022-11-30T18:12:30.637Z,43.75
2022-11-30T18:14:59.079Z,43.20
2022-11-30T18:17:28.491Z,41.78
2022-11-30T18:19:56.439Z,44.13
2022-11-30T18:22:24.431Z,39.13
2022-11-30T18:24:52.454Z,37.95
2022-11-30T18:27:20.437Z,41.58
2022-11-30T18:29:48.438Z,41.67
2022-11-30T18:32:16.384Z,43.65
2022-11-30T18:34:49.818Z,42.40
2022-11-30T18:37:18.154Z,43.50
2022-11-30T18:39:46.134Z,37.28
2022-11-30T18:42:14.193Z,37.15
2022-11-30T18:44:42.375Z,41.78
2022-11-30T18:47:10.446Z,38.03
2022-11-30T18:49:38.364Z,39.78
2022-11-30T18:52:07.802Z,39.63
2022-11-30T18:54:36.282Z,33.57
2022-11-30T18:57:04.285Z,39.72
2022-11-30T18:59:32.482Z,37.38
2022-11-30T19:02:00.614Z,34.08
2022-11-30T19:04:28.621Z,41.55
2022-11-30T19:06:56.642Z,37.08
2022-11-30T19:09:26.149Z,35.47
2022-11-30T19:11:58.013Z,39.85
2022-11-30T19:14:25.942Z,34.58
2022-11-30T19:16:54.017Z,37.13
2022-11-30T19:19:22.742Z,34.15
2022-11-30T19:21:50.725Z,39.70
2022-11-30T19:24:18.703Z,35.83
2022-11-30T19:26:48.409Z,50.17
2022-11-30T19:29:16.341Z,46.80
2022-11-30T19:31:44.309Z,35.63
2022-11-30T19:34:13.443Z,32.05
2022-11-30T19:36:41.854Z,32.70
2022-11-30T19:39:11.285Z,36.10
2022-11-30T19:41:39.244Z,33.40
2022-11-30T19:44:13.635Z,33.95
2022-11-30T19:46:41.953Z,40.45
2022-11-30T19:49:11.267Z,36.72
2022-11-30T19:51:39.288Z,36.75
2022-11-30T19:54:07.529Z,29.67
2022-11-30T19:56:35.826Z,38.05
2022-11-30T19:59:05.511Z,31.45
2022-11-30T20:01:35.513Z,38.28
2022-11-30T20:04:04.323Z,36.85
2022-11-30T20:06:34.029Z,36.13
2022-11-30T20:09:01.974Z,36.65
2022-11-30T20:11:30.400Z,34.13
2022-11-30T20:13:58.705Z,37.35
2022-11-30T20:16:27.206Z,34.53
2022-11-30T20:19:00.785Z,33.83
2022-11-30T20:21:30.744Z,32.97
2022-11-30T20:24:01.042Z,35.55
2022-11-30T20:29:00.395Z,32.35
2022-11-30T20:31:30.280Z,32.20
2022-11-30T20:33:59.942Z,27.00
2022-11-30T20:36:28.063Z,28.17
2022-11-30T20:38:56.175Z,27.60
2022-11-30T20:41:25.637Z,30.45
2022-11-30T20:43:53.985Z,28.73
2022-11-30T20:46:24.193Z,29.77
2022-11-30T20:51:33.217Z,25.20
2022-11-30T20:54:03.730Z,23.23
2022-11-30T20:56:31.905Z,23.20
2022-11-30T20:59:02.625Z,23.35
2022-11-30T21:01:31.514Z,24.52
2022-11-30T21:04:00.727Z,25.00
2022-11-30T21:06:30.995Z,25.03
2022-11-30T21:08:59.523Z,26.45
2022-11-30T21:11:28.964Z,27.60
2022-11-30T21:13:58.530Z,29.30
2022-11-30T21:16:29.685Z,25.85
2022-11-30T21:18:59.828Z,29.60
2022-11-30T21:21:31.210Z,27.67
2022-11-30T21:24:01.170Z,25.75
2022-11-30T21:26:31.464Z,24.58
2022-11-30T21:31:29.569Z,27.03
2022-11-30T21:33:57.565Z,28.60
2022-11-30T21:36:25.823Z,30.58
2022-11-30T21:39:05.720Z,96.75
2022-11-30T21:41:35.837Z,28.85
2022-11-30T21:44:04.338Z,33.85
2022-11-30T21:46:32.695Z,34.08
2022-11-30T21:49:01.443Z,37.33
2022-11-30T21:51:31.734Z,34.13
2022-11-30T21:54:04.225Z,39.38
2022-11-30T21:56:34.935Z,34.88
2022-11-30T21:59:04.922Z,39.00
2022-11-30T22:01:34.985Z,37.47
2022-11-30T22:04:04.869Z,39.63
2022-11-30T22:06:35.795Z,42.47
2022-11-30T22:09:08.743Z,44.78
2022-11-30T22:11:38.996Z,45.47
2022-11-30T22:16:36.520Z,47.72
2022-11-30T22:19:06.706Z,45.95
2022-11-30T22:21:35.259Z,92.90
2022-11-30T22:24:06.568Z,63.33
2022-11-30T22:26:36.236Z,65.82
2022-11-30T22:29:06.539Z,65.07
2022-11-30T22:34:04.479Z,64.88
2022-11-30T22:36:34.101Z,67.68
2022-11-30T22:39:03.995Z,69.82
2022-11-30T22:41:33.997Z,72.18
2022-11-30T22:44:02.772Z,72.63
2022-11-30T22:46:33.600Z,79.68
2022-11-30T22:49:02.443Z,80.78
2022-11-30T22:51:32.451Z,86.97
2022-11-30T22:54:01.587Z,98.00
2022-11-30T22:56:36.462Z,81.78
2022-11-30T22:59:06.604Z,85.53
2022-11-30T23:01:36.548Z,86.95
2022-11-30T23:04:07.220Z,83.45
2022-11-30T23:06:36.184Z,84.05
2022-11-30T23:09:06.420Z,87.65
2022-11-30T23:11:36.825Z,83.30
2022-11-30T23:14:08.444Z,71.63
2022-11-30T23:16:37.808Z,92.60
2022-11-30T23:19:07.015Z,89.27
2022-11-30T23:21:41.351Z,98.47
2022-11-30T23:24:13.962Z,95.80
2022-11-30T23:26:43.877Z,87.20
2022-11-30T23:29:13.815Z,92.75
2022-11-30T23:31:43.951Z,93.47
2022-11-30T23:34:18.037Z,94.75
2022-11-30T23:36:46.551Z,95.03
2022-11-30T23:39:16.683Z,91.97
2022-11-30T23:41:46.291Z,93.13
2022-11-30T23:44:14.382Z,68.78
2022-11-30T23:46:42.759Z,89.65
2022-11-30T23:49:13.050Z,85.22
2022-11-30T23:54:11.567Z,86.82
2022-11-30T23:56:39.703Z,82.40
2022-11-30T23:59:09.022Z,82.93
